createdAt,value
2018-02-24T00:01:22.625Z,96.90
2018-02-24T00:03:50.174Z,97.20
2018-02-24T00:06:17.742Z,97.30
2018-02-24T00:08:45.293Z,97.40
2018-02-24T00:11:13.658Z,96.50
2018-02-24T00:13:41.216Z,96.50
2018-02-24T00:16:08.837Z,96.30
2018-02-24T00:18:36.388Z,96.40
2018-02-24T00:21:03.976Z,96.90
2018-02-24T00:23:32.288Z,97.10
2018-02-24T00:25:59.853Z,97.10
2018-02-24T00:28:28.210Z,96.60
2018-02-24T00:30:55.804Z,96.60
2018-02-24T00:33:23.349Z,96.50
2018-02-24T00:35:50.906Z,96.50
2018-02-24T00:38:18.467Z,96.70
2018-02-24T00:40:46.022Z,96.70
2018-02-24T00:43:13.589Z,96.90
2018-02-24T00:45:41.145Z,97.00
2018-02-24T00:48:09.497Z,97.00
2018-02-24T00:50:37.045Z,97.00
2018-02-24T00:53:04.646Z,96.90
2018-02-24T00:55:32.192Z,96.60
2018-02-24T00:57:59.765Z,96.30
2018-02-24T01:00:27.309Z,96.20
2018-02-24T01:02:54.905Z,96.20
2018-02-24T01:05:22.456Z,95.80
2018-02-24T01:07:50.004Z,95.90
2018-02-24T01:10:18.363Z,96.20
2018-02-24T01:12:45.917Z,96.20
2018-02-24T01:15:13.481Z,96.40
2018-02-24T01:17:41.035Z,96.10
2018-02-24T01:20:08.607Z,96.10
2018-02-24T01:22:36.161Z,96.00
2018-02-24T01:25:04.502Z,96.20
2018-02-24T01:27:32.056Z,96.20
2018-02-24T01:29:59.632Z,96.40
2018-02-24T01:32:27.179Z,96.70
2018-02-24T01:34:54.778Z,96.50
2018-02-24T01:37:22.334Z,96.70
2018-02-24T01:39:49.881Z,96.70
2018-02-24T01:42:18.212Z,96.80
2018-02-24T01:44:45.764Z,96.70
2018-02-24T01:47:14.097Z,96.50
2018-02-24T01:49:41.650Z,96.40
2018-02-24T01:52:09.230Z,96.70
2018-02-24T01:54:36.781Z,96.70
2018-02-24T01:57:04.358Z,96.50
2018-02-24T01:59:31.913Z,96.70
2018-02-24T02:01:59.493Z,96.90
2018-02-24T02:04:27.710Z,96.70
2018-02-24T02:06:55.273Z,96.80
2018-02-24T02:09:22.825Z,96.90
2018-02-24T02:11:50.396Z,97.00
2018-02-24T02:14:17.947Z,96.90
2018-02-24T02:16:46.854Z,97.20
2018-02-24T02:19:14.396Z,97.20
2018-02-24T02:21:42.714Z,97.20
2018-02-24T02:24:10.281Z,97.10
2018-02-24T02:26:37.828Z,96.90
2018-02-24T02:29:07.225Z,97.00
2018-02-24T02:31:34.769Z,97.00
2018-02-24T02:34:02.878Z,97.00
2018-02-24T02:36:30.418Z,97.20
2018-02-24T02:38:57.998Z,97.10
2018-02-24T02:41:25.548Z,97.30
2018-02-24T02:43:54.003Z,97.30
2018-02-24T02:46:22.321Z,97.40
2018-02-24T02:48:49.958Z,97.40
2018-02-24T02:51:17.524Z,97.50
2018-02-24T02:53:45.170Z,97.70
2018-02-24T02:56:12.745Z,98.00
2018-02-24T02:58:40.312Z,98.20
2018-02-24T03:01:07.872Z,98.30
2018-02-24T03:03:35.419Z,98.30
2018-02-24T03:06:03.739Z,98.50
2018-02-24T03:08:32.011Z,98.50
2018-02-24T03:10:59.874Z,98.70
2018-02-24T03:13:28.187Z,99.00
2018-02-24T03:15:55.761Z,99.00
2018-02-24T03:18:23.323Z,99.00
2018-02-24T03:20:50.864Z,99.10
2018-02-24T03:23:18.807Z,99.20
2018-02-24T03:25:46.375Z,99.30
2018-02-24T03:28:13.935Z,99.50
2018-02-24T03:30:41.480Z,99.90
2018-02-24T03:33:09.812Z,99.80
2018-02-24T03:35:37.350Z,99.80
2018-02-24T03:38:04.946Z,99.90
2018-02-24T03:40:32.501Z,99.90
2018-02-24T03:43:00.056Z,99.90
2018-02-24T03:45:29.171Z,99.90
2018-02-24T03:47:56.722Z,99.90
2018-02-24T03:50:25.064Z,99.90
2018-02-24T03:52:52.610Z,99.90
2018-02-24T03:55:20.176Z,99.90
2018-02-24T03:57:47.724Z,99.90
2018-02-24T04:00:16.064Z,99.90
2018-02-24T04:02:43.609Z,99.90
2018-02-24T04:05:11.169Z,99.90
2018-02-24T04:07:39.473Z,99.90
2018-02-24T04:10:07.056Z,99.90
2018-02-24T04:12:34.602Z,99.90
2018-02-24T04:15:02.951Z,99.90
2018-02-24T04:17:30.492Z,99.90
2018-02-24T04:19:58.040Z,99.90
2018-02-24T04:22:26.417Z,99.30
2018-02-24T04:24:55.539Z,98.80
2018-02-24T04:27:23.866Z,98.20
2018-02-24T04:29:51.408Z,98.20
2018-02-24T04:32:18.972Z,97.70
2018-02-24T04:34:47.279Z,97.40
2018-02-24T04:37:14.833Z,97.40
2018-02-24T04:39:43.137Z,97.00
2018-02-24T04:42:10.704Z,97.00
2018-02-24T04:44:38.248Z,96.90
2018-02-24T04:47:06.580Z,96.10
2018-02-24T04:49:34.124Z,95.90
2018-02-24T04:52:01.727Z,95.70
2018-02-24T04:54:29.268Z,95.60
2018-02-24T04:56:56.816Z,95.30
2018-02-24T04:59:24.382Z,94.00
2018-02-24T05:01:51.929Z,93.70
2018-02-24T05:04:20.303Z,93.00
2018-02-24T05:06:47.845Z,92.80
2018-02-24T05:09:16.166Z,92.40
2018-02-24T05:11:43.710Z,92.40
2018-02-24T05:14:11.298Z,91.50
2018-02-24T05:16:38.835Z,91.00
2018-02-24T05:19:07.167Z,90.20
2018-02-24T05:21:34.712Z,90.20
2018-02-24T05:24:02.312Z,90.00
2018-02-24T05:26:29.855Z,90.10
2018-02-24T05:28:58.163Z,88.60
2018-02-24T05:31:25.723Z,88.60
2018-02-24T05:33:53.251Z,87.60
2018-02-24T05:36:21.135Z,86.90
2018-02-24T05:38:48.680Z,86.30
2018-02-24T05:41:16.239Z,83.90
2018-02-24T05:43:43.796Z,83.40
2018-02-24T05:46:11.355Z,82.80
2018-02-24T05:48:39.659Z,82.00
2018-02-24T05:51:07.231Z,81.90
2018-02-24T05:53:34.776Z,81.00
2018-02-24T05:56:03.095Z,81.40
2018-02-24T05:58:30.629Z,81.40
2018-02-24T06:00:58.978Z,81.30
2018-02-24T06:03:26.548Z,81.30
2018-02-24T06:05:54.900Z,82.40
2018-02-24T06:08:22.459Z,82.40
2018-02-24T06:10:50.760Z,82.40
2018-02-24T06:13:18.321Z,82.30
2018-02-24T06:15:46.676Z,83.10
2018-02-24T06:18:14.220Z,83.00
2018-02-24T06:20:41.778Z,82.40
2018-02-24T06:23:09.411Z,82.70
2018-02-24T06:25:36.953Z,82.00
2018-02-24T06:28:04.533Z,81.80
2018-02-24T06:30:32.091Z,80.00
2018-02-24T06:33:00.416Z,77.00
2018-02-24T06:35:28.008Z,76.90
2018-02-24T06:37:56.335Z,74.10
2018-02-24T06:40:23.876Z,74.10
2018-02-24T06:42:51.454Z,72.60
2018-02-24T06:45:18.992Z,71.20
2018-02-24T06:47:46.571Z,68.80
2018-02-24T06:50:14.880Z,69.60
2018-02-24T06:52:42.424Z,69.60
2018-02-24T06:55:09.983Z,69.00
2018-02-24T06:57:37.525Z,68.00
2018-02-24T07:00:05.101Z,66.70
2018-02-24T07:02:32.637Z,66.20
2018-02-24T07:05:00.189Z,64.80
2018-02-24T07:07:28.488Z,65.50
2018-02-24T07:09:56.843Z,64.90
2018-02-24T07:12:24.380Z,64.80
2018-02-24T07:14:51.997Z,65.60
2018-02-24T07:17:19.559Z,65.80
2018-02-24T07:19:47.887Z,66.60
2018-02-24T07:22:15.440Z,66.60
2018-02-24T07:24:43.841Z,67.10
2018-02-24T07:27:12.173Z,67.60
2018-02-24T07:29:39.720Z,67.60
2018-02-24T07:32:07.297Z,67.70
2018-02-24T07:34:34.843Z,67.20
2018-02-24T07:37:02.400Z,67.50
2018-02-24T07:39:29.942Z,69.30
2018-02-24T07:41:57.505Z,69.70
2018-02-24T07:44:25.060Z,69.40
2018-02-24T07:46:52.627Z,67.40
2018-02-24T07:49:20.160Z,67.30
2018-02-24T07:51:49.456Z,68.40
2018-02-24T07:54:17.012Z,68.80
2018-02-24T07:56:44.596Z,67.40
2018-02-24T07:59:12.153Z,67.10
2018-02-24T08:01:39.719Z,66.50
2018-02-24T08:04:07.683Z,65.70
2018-02-24T08:06:35.841Z,65.70
2018-02-24T08:09:04.168Z,66.60
2018-02-24T08:11:31.706Z,66.50
2018-02-24T08:14:00.033Z,63.20
2018-02-24T08:16:28.692Z,63.10
2018-02-24T08:18:57.047Z,60.60
2018-02-24T08:21:25.380Z,61.60
2018-02-24T08:23:52.939Z,61.70
2018-02-24T08:26:21.242Z,62.50
2018-02-24T08:28:48.894Z,62.50
2018-02-24T08:31:17.204Z,61.30
2018-02-24T08:33:45.211Z,61.30
2018-02-24T08:36:12.752Z,62.30
2018-02-24T08:38:41.064Z,61.80
2018-02-24T08:41:08.621Z,61.90
2018-02-24T08:43:36.160Z,62.30
2018-02-24T08:46:04.524Z,62.40
2018-02-24T08:48:32.080Z,60.90
2018-02-24T08:50:59.683Z,60.50
2018-02-24T08:53:27.275Z,62.80
2018-02-24T08:55:55.595Z,60.60
2018-02-24T08:58:23.136Z,60.40
2018-02-24T09:00:52.917Z,62.80
2018-02-24T09:03:20.454Z,62.70
2018-02-24T09:05:48.016Z,64.70
2018-02-24T09:08:16.321Z,66.10
2018-02-24T09:10:43.879Z,66.10
2018-02-24T09:13:12.230Z,69.20
2018-02-24T09:15:39.798Z,69.20
2018-02-24T09:18:07.365Z,70.80
2018-02-24T09:20:34.911Z,72.30
2018-02-24T09:23:02.476Z,70.10
2018-02-24T09:25:31.139Z,71.80
2018-02-24T09:27:59.467Z,71.30
2018-02-24T09:30:27.067Z,71.30
2018-02-24T09:32:54.629Z,70.70
2018-02-24T09:35:22.861Z,70.80
2018-02-24T09:37:51.768Z,70.50
2018-02-24T09:40:20.119Z,67.40
2018-02-24T09:42:48.492Z,68.00
2018-02-24T09:45:16.668Z,67.90
2018-02-24T09:47:44.279Z,69.60
2018-02-24T09:50:11.836Z,70.50
2018-02-24T09:52:39.409Z,72.20
2018-02-24T09:55:06.984Z,72.50
2018-02-24T09:57:34.564Z,73.30
2018-02-24T10:00:02.116Z,71.90
2018-02-24T10:02:29.665Z,72.20
2018-02-24T10:04:57.229Z,71.90
2018-02-24T10:07:24.765Z,70.90
2018-02-24T10:09:52.335Z,68.50
2018-02-24T10:12:19.880Z,69.50
2018-02-24T10:14:47.460Z,69.80
2018-02-24T10:17:15.012Z,68.40
2018-02-24T10:19:42.589Z,68.30
2018-02-24T10:22:10.136Z,70.50
2018-02-24T10:24:38.690Z,72.30
2018-02-24T10:27:07.013Z,71.40
2018-02-24T10:29:34.588Z,71.00
2018-02-24T10:32:02.156Z,71.30
2018-02-24T10:34:31.200Z,71.70
2018-02-24T10:36:58.780Z,72.50
2018-02-24T10:39:26.348Z,71.40
2018-02-24T10:41:57.053Z,71.20
2018-02-24T10:44:24.609Z,69.80
2018-02-24T10:46:52.936Z,70.30
2018-02-24T10:49:21.826Z,70.20
2018-02-24T10:51:50.133Z,72.20
2018-02-24T10:54:17.701Z,70.50
2018-02-24T10:56:45.256Z,70.60
2018-02-24T10:59:12.796Z,67.90
2018-02-24T11:01:41.134Z,67.00
2018-02-24T11:04:08.677Z,67.00
2018-02-24T11:06:36.659Z,67.30
2018-02-24T11:09:05.270Z,61.20
2018-02-24T11:11:32.816Z,61.00
2018-02-24T11:14:01.154Z,54.90
2018-02-24T11:16:28.707Z,54.90
2018-02-24T11:18:56.268Z,53.20
2018-02-24T11:21:23.815Z,54.60
2018-02-24T11:23:52.145Z,51.50
2018-02-24T11:26:19.676Z,51.50
2018-02-24T11:28:47.241Z,50.90
2018-02-24T11:31:15.574Z,54.40
2018-02-24T11:33:45.263Z,54.40
2018-02-24T11:36:14.492Z,52.40
2018-02-24T11:38:45.638Z,51.30
2018-02-24T11:41:16.251Z,54.00
2018-02-24T11:43:44.085Z,53.80
2018-02-24T11:46:11.632Z,51.60
2018-02-24T11:49:02.435Z,52.60
2018-02-24T11:51:30.753Z,50.40
2018-02-24T11:59:55.677Z,52.70
2018-02-24T12:02:23.297Z,54.80
2018-02-24T12:04:50.902Z,54.70
2018-02-24T12:07:18.586Z,53.80
2018-02-24T12:09:55.162Z,54.00
2018-02-24T12:12:22.788Z,54.40
2018-02-24T12:14:58.417Z,55.40
2018-02-24T12:20:06.835Z,46.70
2018-02-24T12:22:35.228Z,46.80
2018-02-24T12:25:03.603Z,45.20
2018-02-24T12:27:31.268Z,45.00
2018-02-24T12:32:52.951Z,45.20
2018-02-24T12:35:20.521Z,45.20
2018-02-24T12:37:48.670Z,44.90
2018-02-24T12:40:16.216Z,45.40
2018-02-24T12:42:43.780Z,44.70
2018-02-24T12:45:12.093Z,46.20
2018-02-24T12:47:40.399Z,46.10
2018-02-24T12:50:07.960Z,44.10
2018-02-24T12:52:35.533Z,44.20
2018-02-24T12:55:03.101Z,44.30
2018-02-24T12:57:35.715Z,45.80
2018-02-24T13:00:05.932Z,45.70
2018-02-24T13:02:35.304Z,46.00
2018-02-24T13:05:04.742Z,46.60
2018-02-24T13:07:32.362Z,46.00
2018-02-24T13:10:27.367Z,47.40
2018-02-24T13:13:00.798Z,45.70
2018-02-24T13:15:29.046Z,45.80
2018-02-24T13:17:56.645Z,44.90
2018-02-24T13:20:25.833Z,45.90
2018-02-24T13:23:03.961Z,47.00
2018-02-24T13:25:33.388Z,45.70
2018-02-24T13:28:00.994Z,46.60
2018-02-24T13:30:35.322Z,46.50
2018-02-24T13:33:12.500Z,47.50
2018-02-24T13:35:40.105Z,46.80
2018-02-24T13:38:08.514Z,47.00
2018-02-24T13:40:36.117Z,46.90
2018-02-24T13:43:03.692Z,47.40
2018-02-24T13:45:31.409Z,46.50
2018-02-24T13:48:07.561Z,44.80
2018-02-24T13:50:35.256Z,44.40
2018-02-24T13:53:02.918Z,43.80
2018-02-24T13:55:31.301Z,44.70
2018-02-24T13:57:58.885Z,44.60
2018-02-24T14:00:26.496Z,44.60
2018-02-24T14:02:54.173Z,44.20
2018-02-24T14:05:21.758Z,44.30
2018-02-24T14:07:49.363Z,45.30
2018-02-24T14:10:16.977Z,44.90
2018-02-24T14:12:44.587Z,45.20
2018-02-24T14:15:12.992Z,46.20
2018-02-24T14:17:54.742Z,46.10
2018-02-24T14:20:23.126Z,45.90
2018-02-24T14:22:51.507Z,45.30
2018-02-24T14:25:19.910Z,45.60
2018-02-24T14:27:50.414Z,45.60
2018-02-24T14:30:18.090Z,45.70
2018-02-24T14:32:47.790Z,46.80
2018-02-24T14:35:15.426Z,47.30
2018-02-24T14:37:43.042Z,48.30
2018-02-24T14:40:14.372Z,49.00
2018-02-24T14:42:42.147Z,48.80
2018-02-24T14:45:09.784Z,47.80
2018-02-24T14:47:37.369Z,48.10
2018-02-24T14:50:07.208Z,45.10
2018-02-24T14:52:34.938Z,44.90
2018-02-24T14:55:02.658Z,45.10
2018-02-24T15:00:09.641Z,45.10
2018-02-24T15:02:37.276Z,45.60
2018-02-24T15:05:04.954Z,45.60
2018-02-24T15:07:36.518Z,46.80
2018-02-24T15:10:04.921Z,47.10
2018-02-24T15:12:32.506Z,46.90
2018-02-24T15:15:00.793Z,46.80
2018-02-24T15:17:28.456Z,47.10
2018-02-24T15:19:56.079Z,47.20
2018-02-24T15:22:25.518Z,48.20
2018-02-24T15:24:53.078Z,47.80
2018-02-24T15:27:21.396Z,48.50
2018-02-24T15:29:48.965Z,48.50
2018-02-24T15:32:16.522Z,49.70
2018-02-24T15:34:44.865Z,49.60
2018-02-24T15:37:12.415Z,49.60
2018-02-24T15:42:23.241Z,50.40
2018-02-24T15:44:50.850Z,50.30
2018-02-24T15:47:26.553Z,50.70
2018-02-24T15:52:27.984Z,52.30
2018-02-24T15:54:55.638Z,50.40
2018-02-24T15:57:24.418Z,48.80
2018-02-24T15:59:52.106Z,48.70
2018-02-24T16:02:19.749Z,48.90
2018-02-24T16:04:49.128Z,50.30
2018-02-24T16:07:16.754Z,50.30
2018-02-24T16:09:44.304Z,48.90
2018-02-24T16:12:11.924Z,49.90
2018-02-24T16:14:39.497Z,51.30
2018-02-24T16:17:07.052Z,51.70
2018-02-24T16:19:34.612Z,51.70
2018-02-24T16:22:02.209Z,51.70
2018-02-24T16:24:29.753Z,52.60
2018-02-24T16:26:58.287Z,53.40
2018-02-24T16:29:25.878Z,53.30
2018-02-24T16:31:53.448Z,53.90
2018-02-24T16:34:20.995Z,54.60
2018-02-24T16:36:48.570Z,54.90
2018-02-24T16:39:16.124Z,55.40
2018-02-24T16:41:43.721Z,55.10
2018-02-24T16:44:11.285Z,55.30
2018-02-24T16:46:38.865Z,54.80
2018-02-24T16:49:06.421Z,54.70
2018-02-24T16:51:34.388Z,55.00
2018-02-24T16:54:02.096Z,55.50
2018-02-24T16:56:29.691Z,55.30
2018-02-24T16:58:57.277Z,55.80
2018-02-24T17:01:24.847Z,56.00
2018-02-24T17:03:52.429Z,56.30
2018-02-24T17:06:20.005Z,56.90
2018-02-24T17:08:50.794Z,57.50
2018-02-24T17:11:18.378Z,57.20
2018-02-24T17:13:45.957Z,57.70
2018-02-24T17:16:13.520Z,58.00
2018-02-24T17:18:41.089Z,58.30
2018-02-24T17:21:08.654Z,58.80
2018-02-24T17:23:36.232Z,58.70
2018-02-24T17:26:03.819Z,58.80
2018-02-24T17:28:31.393Z,58.90
2018-02-24T17:30:58.972Z,58.50
2018-02-24T17:33:32.241Z,57.90
2018-02-24T17:36:00.613Z,58.40
2018-02-24T17:38:28.967Z,59.10
2018-02-24T17:40:56.531Z,59.10
2018-02-24T17:43:26.001Z,60.40
2018-02-24T17:45:54.328Z,60.60
2018-02-24T17:48:21.877Z,60.10
2018-02-24T17:50:50.228Z,60.60
2018-02-24T17:53:17.776Z,60.60
2018-02-24T17:55:45.344Z,60.30
2018-02-24T17:58:12.889Z,60.30
2018-02-24T18:00:40.461Z,60.40
2018-02-24T18:03:08.017Z,61.50
2018-02-24T18:05:36.352Z,62.40
2018-02-24T18:08:03.972Z,62.30
2018-02-24T18:10:32.320Z,62.40
2018-02-24T18:12:59.874Z,62.30
2018-02-24T18:15:27.450Z,62.20
2018-02-24T18:17:54.997Z,62.50
2018-02-24T18:20:22.613Z,63.10
2018-02-24T18:22:50.161Z,62.60
2018-02-24T18:25:17.730Z,62.60
2018-02-24T18:27:45.302Z,62.30
2018-02-24T18:30:12.866Z,62.50
2018-02-24T18:32:40.445Z,62.80
2018-02-24T18:35:08.005Z,63.50
2018-02-24T18:37:35.597Z,63.80
2018-02-24T18:40:03.153Z,63.50
2018-02-24T18:42:30.721Z,63.70
2018-02-24T18:44:58.280Z,63.90
2018-02-24T18:47:26.630Z,63.70
2018-02-24T18:49:54.944Z,64.20
2018-02-24T18:52:22.535Z,64.10
2018-02-24T18:54:50.105Z,64.00
2018-02-24T18:57:18.411Z,63.70
2018-02-24T18:59:45.979Z,63.70
2018-02-24T19:02:13.540Z,63.90
2018-02-24T19:04:41.897Z,65.00
2018-02-24T19:07:09.456Z,65.00
2018-02-24T19:09:37.020Z,64.60
2018-02-24T19:12:05.353Z,64.90
2018-02-24T19:14:32.941Z,64.90
2018-02-24T19:17:00.504Z,65.30
2018-02-24T19:19:29.038Z,65.50
2018-02-24T19:21:56.598Z,66.40
2018-02-24T19:24:24.169Z,66.20
2018-02-24T19:26:51.733Z,66.80
2018-02-24T19:29:19.327Z,67.60
2018-02-24T19:31:46.880Z,67.90
2018-02-24T19:34:14.441Z,68.20
2018-02-24T19:36:42.013Z,68.30
2018-02-24T19:39:09.584Z,68.70
2018-02-24T19:41:37.152Z,69.00
2018-02-24T19:44:04.700Z,68.40
2018-02-24T19:46:32.277Z,68.70
2018-02-24T19:49:00.596Z,69.80
2018-02-24T19:51:28.182Z,69.70
2018-02-24T19:53:55.747Z,70.00
2018-02-24T19:56:23.311Z,70.30
2018-02-24T19:58:50.912Z,70.10
2018-02-24T20:01:18.489Z,70.60
2018-02-24T20:03:46.036Z,70.70
2018-02-24T20:06:13.644Z,70.90
2018-02-24T20:08:41.203Z,71.00
2018-02-24T20:11:08.747Z,71.20
2018-02-24T20:13:36.316Z,71.70
2018-02-24T20:16:03.868Z,72.40
2018-02-24T20:18:32.196Z,72.00
2018-02-24T20:20:59.762Z,72.00
2018-02-24T20:23:27.336Z,72.20
2018-02-24T20:25:54.886Z,72.30
2018-02-24T20:28:22.461Z,72.20
2018-02-24T20:30:50.015Z,72.10
2018-02-24T20:33:18.357Z,72.80
2018-02-24T20:35:45.907Z,72.70
2018-02-24T20:38:13.493Z,73.00
2018-02-24T20:40:41.045Z,72.40
2018-02-24T20:43:08.604Z,72.30
2018-02-24T20:45:36.177Z,72.40
2018-02-24T20:48:03.741Z,72.50
2018-02-24T20:50:31.317Z,72.20
2018-02-24T20:52:59.650Z,72.00
2018-02-24T20:55:27.228Z,72.00
2018-02-24T20:57:54.771Z,71.90
2018-02-24T21:00:22.333Z,70.70
2018-02-24T21:02:49.880Z,70.80
2018-02-24T21:05:18.217Z,70.80
2018-02-24T21:07:45.780Z,70.80
2018-02-24T21:10:13.372Z,71.20
2018-02-24T21:12:40.920Z,70.60
2018-02-24T21:15:08.473Z,70.40
2018-02-24T21:17:36.049Z,70.40
2018-02-24T21:20:03.633Z,70.70
2018-02-24T21:22:31.209Z,70.10
2018-02-24T21:24:58.810Z,70.10
2018-02-24T21:27:26.424Z,70.50
2018-02-24T21:29:53.988Z,70.50
2018-02-24T21:32:22.325Z,70.70
2018-02-24T21:34:49.879Z,70.60
2018-02-24T21:37:17.450Z,70.50
2018-02-24T21:39:45.006Z,70.60
2018-02-24T21:42:12.594Z,71.10
2018-02-24T21:44:40.142Z,70.50
2018-02-24T21:47:08.505Z,70.80
2018-02-24T21:49:36.088Z,70.90
2018-02-24T21:52:04.418Z,71.30
2018-02-24T21:54:32.018Z,71.30
2018-02-24T21:56:59.585Z,71.50
2018-02-24T21:59:27.194Z,71.90
2018-02-24T22:01:56.327Z,72.50
2018-02-24T22:04:23.921Z,72.50
2018-02-24T22:06:51.478Z,72.70
2018-02-24T22:09:19.089Z,72.40
2018-02-24T22:11:46.645Z,72.50
2018-02-24T22:14:14.211Z,72.40
2018-02-24T22:16:41.852Z,72.60
2018-02-24T22:19:09.501Z,72.50
2018-02-24T22:21:37.053Z,72.50
2018-02-24T22:24:04.608Z,71.40
2018-02-24T22:26:32.177Z,72.60
2018-02-24T22:28:59.736Z,72.70
2018-02-24T22:31:27.324Z,72.70
2018-02-24T22:33:54.884Z,72.90
2018-02-24T22:36:22.465Z,73.10
2018-02-24T22:38:50.023Z,73.40
2018-02-24T22:41:17.597Z,73.30
2018-02-24T22:43:45.166Z,73.70
2018-02-24T22:46:12.760Z,74.00
2018-02-24T22:48:46.037Z,74.30
2018-02-24T22:51:13.624Z,74.70
2018-02-24T22:53:41.177Z,74.90
2018-02-24T22:56:08.724Z,75.30
2018-02-24T22:58:36.298Z,75.40
2018-02-24T23:01:04.621Z,76.30
2018-02-24T23:03:32.194Z,76.30
2018-02-24T23:05:59.749Z,76.60
2018-02-24T23:08:27.335Z,77.00
2018-02-24T23:10:54.893Z,77.40
2018-02-24T23:13:22.469Z,77.90
2018-02-24T23:15:50.012Z,78.40
2018-02-24T23:18:17.585Z,78.70
2018-02-24T23:20:45.152Z,78.80
2018-02-24T23:23:12.711Z,79.10
2018-02-24T23:25:40.281Z,79.30
2018-02-24T23:28:07.833Z,79.60
2018-02-24T23:30:35.413Z,80.20
2018-02-24T23:33:02.957Z,80.80
2018-02-24T23:35:30.529Z,80.90
2018-02-24T23:37:58.082Z,81.30
2018-02-24T23:40:25.654Z,81.80
2018-02-24T23:42:53.209Z,82.10
2018-02-24T23:45:20.807Z,82.30
2018-02-24T23:47:48.917Z,82.50
2018-02-24T23:50:16.491Z,82.90
2018-02-24T23:52:44.049Z,83.20
2018-02-24T23:55:11.606Z,83.40
2018-02-24T23:57:39.192Z,83.70
